Time;durP1;ratioP1;P1;durP2;ratioP2;P2;SDS_P1;SDS_P2;PMS_P1;PMS_P2;Temp;Humidity;BMP_temperature;BMP_pressure;BME280_temperature;BME280_humidity;BME280_pressure;Samples;Min_cycle;Max_cycle;Signal;HPM_P1;HPM_P2
2022/05/03 00:00:21;;;;;;;2.00;1.63;;;;;;;25.81;31.38;101729.34;5053406;28;20505;-43
2022/05/03 00:02:59;;;;;;;1.85;1.23;;;;;;;25.80;31.26;101725.88;5053271;28;20025;-42
2022/05/03 00:05:47;;;;;;;3.20;1.67;;;;;;;25.83;31.33;101723.25;5053321;28;20031;-42
2022/05/03 00:08:33;;;;;;;2.72;1.58;;;;;;;25.71;31.61;101713.44;5052831;28;20056;-44
2022/05/03 00:11:10;;;;;;;2.67;1.52;;;;;;;25.88;31.30;101729.50;5053218;28;20049;-43
2022/05/03 00:13:43;;;;;;;7.07;1.73;;;;;;;25.86;31.20;101723.31;5053351;28;20025;-45
2022/05/03 00:16:14;;;;;;;2.03;1.40;;;;;;;25.81;31.27;101724.09;5051815;28;20037;-44
2022/05/03 00:18:43;;;;;;;1.77;1.42;;;;;;;25.77;31.34;101715.28;5053192;28;20036;-42
2022/05/03 00:21:12;;;;;;;4.00;1.48;;;;;;;25.81;31.39;101721.47;5051722;28;20045;-43
2022/05/03 00:23:40;;;;;;;2.65;1.83;;;;;;;25.74;31.26;101715.22;5052761;28;20116;-43
2022/05/03 00:26:10;;;;;;;3.78;1.85;;;;;;;25.79;31.13;101717.06;5051468;28;20382;-42
2022/05/03 00:28:39;;;;;;;2.45;1.50;;;;;;;25.73;31.29;101698.56;5068358;28;20033;-43
2022/05/03 00:31:07;;;;;;;2.83;1.80;;;;;;;25.76;31.21;101713.53;5052770;28;20028;-43
2022/05/03 00:33:36;;;;;;;1.85;1.55;;;;;;;25.75;31.20;101706.50;5053086;28;20025;-43
2022/05/03 00:36:05;;;;;;;2.25;1.52;;;;;;;25.70;31.43;101706.41;5052866;28;20098;-43
2022/05/03 00:38:34;;;;;;;3.53;2.10;;;;;;;25.70;31.32;101708.16;5055853;28;20040;-43
2022/05/03 00:41:05;;;;;;;2.65;1.80;;;;;;;25.67;31.54;101703.72;5056847;28;20033;-43
2022/05/03 00:44:55;;;;;;;2.58;1.65;;;;;;;25.68;31.54;101704.59;5055811;28;20024;-43
2022/05/03 00:46:47;;;;;;;2.00;1.42;;;;;;;25.68;31.28;101696.72;5055819;28;20032;-45
2022/05/03 00:49:50;;;;;;;2.47;1.98;;;;;;;25.62;31.69;101702.75;5055339;28;20116;-42
2022/05/03 00:52:28;;;;;;;2.10;1.42;;;;;;;25.64;31.37;101701.03;5053138;28;20406;-43
2022/05/03 00:55:35;;;;;;;3.47;1.70;;;;;;;25.68;31.33;101704.59;5056810;28;20029;-43
2022/05/03 00:58:30;;;;;;;2.70;1.98;;;;;;;25.67;31.49;101694.94;5052441;28;20128;-43
2022/05/03 01:01:04;;;;;;;5.13;1.63;;;;;;;25.67;31.49;101702.81;5052682;28;20037;-44
2022/05/03 01:03:44;;;;;;;2.70;1.63;;;;;;;25.69;31.07;101703.75;5056485;28;20029;-43
2022/05/03 01:06:25;;;;;;;4.03;1.65;;;;;;;25.74;31.30;101702.09;5056364;28;20045;-44
2022/05/03 01:09:13;;;;;;;2.42;1.65;;;;;;;25.75;30.94;101693.34;5055048;28;20029;-43
2022/05/03 01:12:05;;;;;;;3.13;1.95;;;;;;;25.70;31.32;101695.00;5056142;28;20032;-45
2022/05/03 01:14:44;;;;;;;2.58;1.60;;;;;;;25.70;31.26;101690.66;5051871;28;20083;-43
2022/05/03 01:17:18;;;;;;;2.40;1.50;;;;;;;25.66;30.97;101680.03;5056481;28;20025;-43
2022/05/03 01:20:01;;;;;;;2.30;1.70;;;;;;;25.66;31.44;101666.91;5054634;28;20415;-43
2022/05/03 01:22:39;;;;;;;2.92;1.77;;;;;;;25.65;31.27;101680.94;5055295;28;20037;-43
2022/05/03 01:25:27;;;;;;;2.47;1.70;;;;;;;25.66;31.04;101673.06;5054586;28;20025;-43
2022/05/03 01:28:34;;;;;;;2.05;1.55;;;;;;;25.67;31.01;101674.81;5048810;28;20041;-43
2022/05/03 01:31:10;;;;;;;2.42;1.80;;;;;;;25.60;31.44;101678.19;5051230;28;20044;-42
2022/05/03 01:33:42;;;;;;;2.97;1.70;;;;;;;25.61;31.06;101679.97;5056071;28;20032;-43
2022/05/03 01:36:11;;;;;;;3.47;1.60;;;;;;;25.62;31.08;101685.25;5056139;28;20463;-42
2022/05/03 01:39:07;;;;;;;1.55;1.30;;;;;;;25.68;31.40;101675.69;5054747;28;20386;-44
2022/05/03 01:41:50;;;;;;;2.03;1.50;;;;;;;25.63;31.19;101667.75;5051780;28;20029;-44
2022/05/03 01:44:38;;;;;;;2.13;1.67;;;;;;;25.68;31.18;101675.69;5071618;28;20033;-44
2022/05/03 01:47:27;;;;;;;1.65;1.35;;;;;;;25.72;30.89;101670.53;5048860;28;20033;-42
2022/05/03 01:50:24;;;;;;;1.45;1.33;;;;;;;25.71;30.93;101670.50;5055216;28;20083;-43
2022/05/03 01:53:23;;;;;;;1.90;1.48;;;;;;;25.60;31.14;101649.28;5055717;28;20035;-42
2022/05/03 01:56:14;;;;;;;3.20;1.77;;;;;;;25.73;30.95;101667.03;5052077;28;20045;-43
2022/05/03 01:59:05;;;;;;;2.17;1.70;;;;;;;25.71;31.19;101666.16;5050918;28;20033;-43
2022/05/03 02:01:42;;;;;;;2.45;1.52;;;;;;;25.67;31.28;101659.06;5054335;28;20035;-43
2022/05/03 02:04:36;;;;;;;1.92;1.50;;;;;;;25.55;31.34;101661.50;5055412;28;20033;-43
2022/05/03 02:07:24;;;;;;;2.00;1.75;;;;;;;25.63;31.34;101659.84;5052011;28;20033;-42
2022/05/03 02:10:13;;;;;;;3.35;1.80;;;;;;;25.55;31.30;101657.09;5048198;28;20124;-42
2022/05/03 02:12:43;;;;;;;2.88;1.88;;;;;;;25.59;30.75;101653.69;5049044;28;20044;-45
2022/05/03 02:15:12;;;;;;;1.98;1.60;;;;;;;25.58;31.25;101649.28;5055096;28;20132;-47
2022/05/03 02:17:53;;;;;;;2.40;1.67;;;;;;;25.58;31.20;101645.75;5055313;28;20387;-43
2022/05/03 02:20:40;;;;;;;1.90;1.52;;;;;;;25.58;31.29;101646.66;5054804;28;20098;-45
2022/05/03 02:23:17;;;;;;;1.60;1.50;;;;;;;25.61;30.94;101653.69;5047732;28;20099;-46
2022/05/03 02:26:13;;;;;;;2.35;1.80;;;;;;;25.58;31.28;101654.53;5054580;28;20078;-49
2022/05/03 02:28:41;;;;;;;2.20;1.60;;;;;;;25.66;31.00;101652.03;5054982;28;20071;-46
2022/05/03 02:31:14;;;;;;;2.17;1.38;;;;;;;25.57;31.19;101655.38;5054535;28;20025;-46
2022/05/03 02:33:48;;;;;;;2.28;1.70;;;;;;;25.52;31.41;101657.03;5054939;28;20443;-44
2022/05/03 02:36:18;;;;;;;2.40;1.70;;;;;;;25.52;31.25;101651.78;5055219;28;20029;-44
2022/05/03 02:38:59;;;;;;;2.83;2.00;;;;;;;25.47;31.03;101656.97;5054920;28;20431;-44
2022/05/03 02:41:28;;;;;;;2.63;1.60;;;;;;;25.47;31.39;101654.34;5054532;28;20068;-43
2022/05/03 02:43:59;;;;;;;2.13;1.50;;;;;;;25.50;31.10;101653.50;5054651;28;20493;-47
2022/05/03 02:46:47;;;;;;;4.20;1.63;;;;;;;25.59;31.29;101656.31;5053345;28;20493;-46
2022/05/03 02:49:34;;;;;;;2.28;1.73;;;;;;;25.58;30.82;101654.53;5054689;28;20119;-43
2022/05/03 02:52:08;;;;;;;3.28;1.52;;;;;;;25.58;31.24;101659.78;5047372;28;20114;-43
2022/05/03 02:54:55;;;;;;;3.05;1.65;;;;;;;25.59;30.88;101651.06;5054256;28;20036;-43
2022/05/03 02:57:54;;;;;;;4.18;2.30;;;;;;;25.55;31.13;101649.22;5047332;28;20431;-42
2022/05/03 03:03:48;;;;;;;1.60;1.08;;;;;;;25.58;30.97;101651.91;5053936;28;20529;-44
2022/05/03 03:06:23;;;;;;;2.72;1.80;;;;;;;25.53;31.26;101643.06;5050064;28;20053;-43
2022/05/03 03:08:55;;;;;;;1.63;1.52;;;;;;;25.57;30.88;101658.00;5053154;28;20087;-46
2022/05/03 03:11:55;;;;;;;3.35;1.67;;;;;;;25.59;31.23;101652.78;5054045;28;20029;-46
2022/05/03 03:14:35;;;;;;;2.45;1.60;;;;;;;25.55;31.36;101653.59;5049963;28;20836;-44
2022/05/03 03:17:13;;;;;;;2.25;1.83;;;;;;;25.56;31.20;101648.38;5054100;28;20025;-45
2022/05/03 03:20:00;;;;;;;2.33;1.90;;;;;;;25.59;31.27;101655.41;5036215;28;20102;-43
2022/05/03 03:22:32;;;;;;;2.58;1.77;;;;;;;25.54;31.11;101643.97;5047077;28;20124;-44
2022/05/03 03:25:00;;;;;;;2.13;1.77;;;;;;;25.38;31.04;101629.63;5054082;28;20079;-45
2022/05/03 03:27:31;;;;;;;1.77;1.55;;;;;;;25.47;30.85;101643.84;5052662;28;20021;-42
2022/05/03 03:30:01;;;;;;;3.13;1.80;;;;;;;25.54;31.04;101634.31;5053532;28;20037;-47
2022/05/03 03:32:30;;;;;;;3.70;1.67;;;;;;;25.53;31.36;101637.81;5054064;28;20031;-44
2022/05/03 03:35:00;;;;;;;2.10;1.83;;;;;;;25.53;30.86;101642.19;5053675;28;20447;-43
2022/05/03 03:37:33;;;;;;;2.83;2.08;;;;;;;25.47;30.95;101633.31;5053773;28;20090;-45
2022/05/03 03:40:03;;;;;;;2.25;1.80;;;;;;;25.50;31.35;101642.13;5053636;28;20037;-46
2022/05/03 03:42:32;;;;;;;1.90;1.67;;;;;;;25.43;31.09;101634.13;5053652;28;20028;-47
2022/05/03 03:45:07;;;;;;;2.00;1.50;;;;;;;25.52;30.96;101635.16;5053774;28;20036;-43
2022/05/03 03:47:36;;;;;;;2.60;1.52;;;;;;;25.50;30.89;101623.75;5053299;28;20091;-42
2022/05/03 03:50:05;;;;;;;1.60;1.50;;;;;;;25.59;30.76;101629.13;5053265;28;20032;-46
2022/05/03 03:52:35;;;;;;;1.60;1.50;;;;;;;25.53;31.08;101632.53;5053705;28;20116;-46
2022/05/03 03:55:05;;;;;;;3.13;1.67;;;;;;;25.50;31.27;101632.47;5052164;28;20067;-47
2022/05/03 03:57:33;;;;;;;3.90;1.85;;;;;;;25.40;31.13;101620.03;5053581;28;20036;-45
2022/05/03 04:00:04;;;;;;;2.53;1.80;;;;;;;25.44;30.93;101630.66;5051937;28;20021;-43
2022/05/03 04:02:32;;;;;;;2.47;1.73;;;;;;;25.51;31.22;101636.00;5053220;28;20125;-46
2022/05/03 04:05:02;;;;;;;1.73;1.60;;;;;;;25.51;31.27;101631.63;5053073;28;20037;-43
2022/05/03 04:07:30;;;;;;;4.40;1.90;;;;;;;25.53;31.16;101634.31;5051865;28;20031;-45
2022/05/03 04:09:58;;;;;;;2.67;2.05;;;;;;;25.52;30.93;101628.16;5051406;28;20083;-44
2022/05/03 04:12:27;;;;;;;2.92;1.60;;;;;;;25.49;31.10;101620.22;5052967;28;20037;-44
2022/05/03 04:14:55;;;;;;;2.65;2.05;;;;;;;25.49;30.81;101628.09;5052969;28;20025;-47
2022/05/03 04:17:24;;;;;;;1.90;1.60;;;;;;;25.50;31.15;101635.13;5053170;28;20052;-47
2022/05/03 04:19:52;;;;;;;3.58;1.70;;;;;;;25.47;30.70;101630.69;5052878;28;20068;-47
2022/05/03 04:22:32;;;;;;;3.25;1.70;;;;;;;25.48;31.13;101631.59;5051707;28;20387;-46
2022/05/03 04:25:00;;;;;;;3.08;1.60;;;;;;;25.48;31.18;101634.22;5053329;28;20182;-43
2022/05/03 04:27:27;;;;;;;4.20;1.60;;;;;;;25.55;30.88;101641.34;5052928;28;20174;-42
2022/05/03 04:29:56;;;;;;;2.25;1.60;;;;;;;25.60;30.80;101639.69;5052933;28;20112;-43
2022/05/03 04:32:24;;;;;;;2.08;1.73;;;;;;;25.58;30.73;101635.25;5052917;28;20029;-43
2022/05/03 04:34:53;;;;;;;1.73;1.50;;;;;;;25.60;30.97;101641.41;5051916;28;20033;-44
2022/05/03 04:37:21;;;;;;;2.40;1.70;;;;;;;25.56;31.08;101644.88;5053038;28;20031;-43
2022/05/03 04:39:48;;;;;;;2.20;1.38;;;;;;;25.59;30.82;101637.00;5053056;28;20048;-44
2022/05/03 04:42:17;;;;;;;4.15;2.42;;;;;;;25.58;30.79;101627.34;5052955;28;20021;-43
2022/05/03 04:44:45;;;;;;;1.83;1.58;;;;;;;25.60;30.93;101644.03;5052574;28;20033;-45
2022/05/03 04:47:14;;;;;;;1.77;1.40;;;;;;;25.54;31.05;101628.19;5052933;28;20028;-45
2022/05/03 04:49:42;;;;;;;1.55;1.45;;;;;;;25.61;30.78;101633.56;5051546;28;20048;-45
2022/05/03 04:52:11;;;;;;;2.13;1.55;;;;;;;25.63;31.27;101641.47;5052967;28;20028;-43
2022/05/03 04:54:40;;;;;;;3.00;1.60;;;;;;;25.61;30.93;101651.06;5052590;28;20025;-44
2022/05/03 04:57:09;;;;;;;1.80;1.40;;;;;;;25.60;31.09;101649.28;5053554;28;20029;-43
2022/05/03 04:59:40;;;;;;;1.30;1.20;;;;;;;25.65;31.06;101644.13;5051368;28;20028;-43
2022/05/03 05:02:08;;;;;;;1.92;1.60;;;;;;;25.62;31.00;101648.47;5052796;28;20052;-43
2022/05/03 05:04:36;;;;;;;1.67;1.55;;;;;;;25.62;31.09;101639.69;5052330;28;20029;-45
2022/05/03 05:07:04;;;;;;;2.92;1.70;;;;;;;25.67;31.32;101658.16;5051514;28;20123;-46
2022/05/03 05:09:33;;;;;;;2.42;1.70;;;;;;;25.70;31.03;101652.97;5052174;28;20107;-45
2022/05/03 05:12:01;;;;;;;3.33;1.70;;;;;;;25.66;31.22;101661.63;5052671;28;20058;-45
2022/05/03 05:14:29;;;;;;;2.00;1.60;;;;;;;25.70;31.15;101661.75;5067841;28;20032;-44
2022/05/03 05:16:58;;;;;;;2.90;2.15;;;;;;;25.70;31.22;101660.84;5052613;28;20390;-44
2022/05/03 05:19:25;;;;;;;2.13;1.50;;;;;;;25.68;31.07;101666.09;5034862;28;20045;-44
2022/05/03 05:21:52;;;;;;;1.80;1.60;;;;;;;25.66;31.01;101666.91;5053162;28;20025;-43
2022/05/03 05:24:19;;;;;;;1.30;1.20;;;;;;;25.72;30.98;101664.38;5053640;28;20017;-45
2022/05/03 05:26:47;;;;;;;2.80;1.80;;;;;;;25.67;31.08;101668.66;5056077;28;20502;-46
2022/05/03 05:29:14;;;;;;;2.60;1.55;;;;;;;25.52;31.21;101648.28;5056136;28;20020;-44
2022/05/03 05:31:43;;;;;;;2.65;1.90;;;;;;;25.68;31.16;101670.44;5056215;28;20029;-43
2022/05/03 05:34:11;;;;;;;3.42;2.10;;;;;;;25.65;30.91;101670.41;5056054;28;20079;-47
2022/05/03 05:36:40;;;;;;;1.65;1.50;;;;;;;25.58;31.34;101675.56;5055888;28;20021;-48
2022/05/03 05:39:08;;;;;;;1.80;1.60;;;;;;;25.64;31.14;101672.13;5055900;28;20493;-44
2022/05/03 05:41:37;;;;;;;2.85;1.83;;;;;;;25.64;30.97;101680.03;5055890;28;20027;-43
2022/05/03 05:44:06;;;;;;;2.10;1.60;;;;;;;25.60;31.07;101671.22;5071299;28;20379;-48
2022/05/03 05:46:34;;;;;;;2.53;1.75;;;;;;;25.66;31.16;101682.66;5055922;28;20563;-43
2022/05/03 05:49:04;;;;;;;2.33;1.40;;;;;;;25.60;30.99;101679.09;5055452;28;20037;-46
2022/05/03 05:51:32;;;;;;;4.00;2.13;;;;;;;25.63;31.14;101689.66;5055701;28;20107;-43
2022/05/03 05:54:01;;;;;;;2.22;1.60;;;;;;;25.65;31.36;101691.44;5055837;28;20029;-43
2022/05/03 05:56:29;;;;;;;2.10;1.50;;;;;;;25.63;30.96;101694.91;5055663;28;20029;-43
2022/05/03 05:58:58;;;;;;;1.90;1.30;;;;;;;25.71;30.85;101699.41;5055489;28;20029;-43
2022/05/03 06:01:26;;;;;;;3.92;1.67;;;;;;;25.72;31.17;101698.56;5055488;28;20104;-43
2022/05/03 06:03:54;;;;;;;2.55;1.77;;;;;;;25.71;30.95;101694.16;5055653;28;20029;-43
2022/05/03 06:06:22;;;;;;;2.53;1.40;;;;;;;25.68;30.92;101697.63;5055346;28;20109;-43
2022/05/03 06:08:51;;;;;;;3.92;1.75;;;;;;;25.68;31.45;101701.97;5055573;28;20108;-45
2022/05/03 06:11:18;;;;;;;2.33;1.70;;;;;;;25.68;31.20;101699.34;5054926;28;20021;-45
2022/05/03 06:13:47;;;;;;;1.63;1.50;;;;;;;25.65;31.41;101697.56;5055401;28;20475;-43
2022/05/03 06:16:16;;;;;;;3.25;1.40;;;;;;;25.70;31.21;101697.63;5055281;28;20075;-44
2022/05/03 06:18:44;;;;;;;2.33;1.50;;;;;;;25.67;31.04;101700.19;5055254;28;20474;-43
2022/05/03 06:21:13;;;;;;;2.30;1.55;;;;;;;25.69;31.29;101694.13;5055078;28;20540;-43
2022/05/03 06:23:41;;;;;;;3.28;2.17;;;;;;;25.66;30.84;101698.44;5055160;28;20025;-43
2022/05/03 06:26:09;;;;;;;2.03;1.50;;;;;;;25.65;30.89;101702.81;5054968;28;20033;-45
2022/05/03 06:28:39;;;;;;;4.25;1.70;;;;;;;25.70;30.96;101705.50;5054915;28;20032;-43
2022/05/03 06:31:08;;;;;;;3.47;2.10;;;;;;;25.69;30.95;101707.28;5054812;28;20029;-43
2022/05/03 06:33:35;;;;;;;3.78;1.77;;;;;;;25.64;30.87;101706.28;5054999;28;20029;-44
2022/05/03 06:36:04;;;;;;;3.25;1.70;;;;;;;25.64;31.05;101708.94;5054613;28;20171;-45
2022/05/03 06:38:32;;;;;;;2.83;1.50;;;;;;;25.62;30.88;101706.28;5055066;28;20104;-43
2022/05/03 06:41:01;;;;;;;3.70;1.58;;;;;;;25.68;31.00;101707.22;5054784;28;20013;-47
2022/05/03 06:43:30;;;;;;;6.35;2.15;;;;;;;25.66;31.41;101711.56;5054774;28;20493;-44
2022/05/03 06:45:58;;;;;;;4.40;2.20;;;;;;;25.69;31.24;101709.00;5069991;28;20044;-43
2022/05/03 06:48:26;;;;;;;2.30;1.52;;;;;;;25.67;31.26;101701.09;5054736;28;20024;-43
2022/05/03 06:50:55;;;;;;;3.05;1.52;;;;;;;25.68;31.14;101700.25;5054774;28;20028;-44
2022/05/03 06:53:23;;;;;;;3.92;1.70;;;;;;;25.66;31.07;101701.06;5054528;28;20024;-42
2022/05/03 06:55:52;;;;;;;3.33;1.90;;;;;;;25.65;31.16;101700.19;5055144;28;20060;-44
2022/05/03 06:58:21;;;;;;;3.35;2.00;;;;;;;25.67;31.13;101706.34;5054897;28;20029;-43
2022/05/03 07:00:49;;;;;;;2.55;1.67;;;;;;;25.64;30.97;101703.66;5054512;28;20021;-46
2022/05/03 07:03:18;;;;;;;4.50;1.90;;;;;;;25.66;31.18;101714.19;5054527;28;20099;-43
2022/05/03 07:05:45;;;;;;;2.95;1.60;;;;;;;25.72;30.80;101712.59;5054467;28;20087;-48
2022/05/03 07:08:14;;;;;;;6.45;1.75;;;;;;;25.69;30.90;101714.25;5052896;28;20094;-43
2022/05/03 07:10:44;;;;;;;2.97;1.52;;;;;;;25.67;31.02;101716.88;5052517;28;20057;-43
2022/05/03 07:13:17;;;;;;;3.92;1.92;;;;;;;25.68;31.05;101717.75;5054206;28;20045;-46
2022/05/03 07:15:45;;;;;;;3.90;1.90;;;;;;;25.75;31.15;101724.88;5054006;28;20036;-44
2022/05/03 07:23:47;;;;;;;4.03;2.05;;;;;;;25.64;31.12;101724.69;5050030;28;20079;-43
2022/05/03 07:26:16;;;;;;;6.85;2.10;;;;;;;25.55;31.31;101729.78;5053871;28;20025;-49
2022/05/03 07:28:47;;;;;;;2.45;1.77;;;;;;;25.60;31.33;101725.47;5054116;28;20391;-43
2022/05/03 07:31:16;;;;;;;7.40;2.00;;;;;;;25.58;31.12;101719.31;5053804;28;20040;-43
2022/05/03 07:33:45;;;;;;;2.55;1.80;;;;;;;25.61;31.49;101727.25;5069007;28;20056;-43
2022/05/03 07:36:14;;;;;;;4.68;1.80;;;;;;;25.43;31.09;101706.81;5052607;28;20029;-42
2022/05/03 07:38:43;;;;;;;3.95;1.67;;;;;;;25.55;31.16;101716.66;5053994;28;20025;-43
2022/05/03 07:41:12;;;;;;;3.55;2.05;;;;;;;25.57;31.29;101723.69;5052417;28;20059;-42
2022/05/03 07:43:41;;;;;;;4.65;1.98;;;;;;;25.60;30.89;101717.59;5052094;28;20029;-43
2022/05/03 07:46:10;;;;;;;2.53;2.03;;;;;;;25.62;30.97;101723.78;5069126;28;20098;-43
2022/05/03 07:48:39;;;;;;;2.15;1.40;;;;;;;25.55;31.28;101716.66;5051677;28;20029;-44
2022/05/03 07:51:07;;;;;;;3.00;1.70;;;;;;;25.52;31.47;101732.34;5053181;28;20108;-45
2022/05/03 07:53:36;;;;;;;4.53;2.20;;;;;;;25.62;31.14;101734.28;5052523;28;20036;-42
2022/05/03 07:56:04;;;;;;;2.75;2.08;;;;;;;25.56;31.31;101728.94;5053556;28;20044;-43
2022/05/03 07:58:35;;;;;;;2.90;1.73;;;;;;;25.59;31.20;101737.75;5052289;28;20463;-42
2022/05/03 08:01:05;;;;;;;2.80;1.80;;;;;;;25.56;31.15;101737.69;5052301;28;20429;-42
2022/05/03 08:03:33;;;;;;;3.08;1.63;;;;;;;25.53;31.47;101735.00;5069048;28;20094;-42
2022/05/03 08:06:02;;;;;;;2.65;1.90;;;;;;;25.52;31.15;101741.09;5052920;28;20029;-43
2022/05/03 08:08:30;;;;;;;3.47;1.90;;;;;;;25.52;31.24;101740.25;5052157;28;20182;-42
2022/05/03 08:10:59;;;;;;;2.22;1.80;;;;;;;25.47;31.18;101737.53;5053401;28;20083;-42
2022/05/03 08:13:26;;;;;;;13.00;2.90;;;;;;;25.45;31.16;101720.84;5069216;28;20029;-43
2022/05/03 08:15:55;;;;;;;5.60;2.22;;;;;;;25.54;31.09;101743.78;5053309;28;20557;-43
2022/05/03 08:18:24;;;;;;;3.22;2.22;;;;;;;25.41;31.45;101738.25;5052313;28;20021;-45
2022/05/03 08:20:53;;;;;;;3.40;1.90;;;;;;;25.49;31.39;101741.03;5034888;28;20136;-43
2022/05/03 08:23:22;;;;;;;5.00;1.42;;;;;;;25.53;31.33;101747.25;5053241;28;20025;-43
2022/05/03 08:25:50;;;;;;;3.47;1.65;;;;;;;25.51;31.26;101749.84;5053371;28;20033;-42
2022/05/03 08:28:20;;;;;;;4.85;1.98;;;;;;;25.41;31.33;101725.09;5053213;28;20025;-44
2022/05/03 08:30:48;;;;;;;4.28;1.67;;;;;;;25.54;31.03;101746.41;5051778;28;20029;-43
2022/05/03 08:33:17;;;;;;;2.90;1.48;;;;;;;25.49;31.38;101746.31;5052965;28;20028;-43
2022/05/03 08:35:45;;;;;;;1.85;1.38;;;;;;;25.49;31.57;101748.94;5052950;28;20062;-44
2022/05/03 08:43:50;;;;;;;2.85;1.42;;;;;;;25.55;31.24;101754.31;5052457;28;20551;-42
2022/05/03 08:46:21;;;;;;;2.58;1.90;;;;;;;25.50;31.40;101742.81;5051918;28;20037;-44
2022/05/03 08:48:54;;;;;;;2.38;1.80;;;;;;;25.45;31.43;101747.13;5052921;28;20471;-44
2022/05/03 08:51:24;;;;;;;3.53;2.03;;;;;;;25.48;31.44;101752.44;5052936;28;20037;-42
2022/05/03 08:53:52;;;;;;;2.90;1.92;;;;;;;25.45;31.48;101748.00;5035713;28;20113;-44
2022/05/03 08:56:22;;;;;;;3.10;1.48;;;;;;;25.47;31.22;101758.53;5051601;28;20112;-45
2022/05/03 08:58:51;;;;;;;2.17;1.35;;;;;;;25.55;31.52;101762.19;5052847;28;20112;-42
2022/05/03 09:01:20;;;;;;;3.10;2.10;;;;;;;25.53;31.20;101763.91;5056921;28;20493;-45
2022/05/03 09:03:48;;;;;;;2.50;1.60;;;;;;;25.48;31.29;101757.69;5072090;28;20175;-44
2022/05/03 09:06:18;;;;;;;3.75;1.75;;;;;;;25.47;31.33;101756.78;5056856;28;20021;-43
2022/05/03 09:08:51;;;;;;;1.70;1.10;;;;;;;25.48;31.31;101763.81;5055815;28;20032;-43
2022/05/03 09:11:19;;;;;;;2.53;1.27;;;;;;;25.48;31.20;101758.56;5056274;28;20028;-44
2022/05/03 09:13:48;;;;;;;3.42;1.45;;;;;;;25.55;31.58;101767.44;5055368;28;20025;-42
2022/05/03 09:16:20;;;;;;;2.47;1.05;;;;;;;25.56;31.29;101763.97;5055098;28;20090;-43
2022/05/03 09:18:49;;;;;;;2.92;1.55;;;;;;;25.53;31.35;101765.66;5056286;28;20037;-43
2022/05/03 09:24:12;;;;;;;2.63;1.42;;;;;;;25.60;31.18;101771.06;5052403;28;20048;-46
2022/05/03 09:26:41;;;;;;;1.90;1.52;;;;;;;25.55;31.35;101772.69;5056295;28;20029;-42
2022/05/03 09:29:12;;;;;;;3.10;1.38;;;;;;;25.55;31.49;101777.09;5056052;28;20035;-43
2022/05/03 09:31:41;;;;;;;1.67;1.20;;;;;;;25.55;31.47;101783.22;5055109;28;20048;-42
2022/05/03 09:34:18;;;;;;;3.15;1.40;;;;;;;25.54;31.63;101777.94;5055974;28;20387;-43
2022/05/03 09:36:50;;;;;;;3.97;1.50;;;;;;;25.59;31.48;101777.16;5056044;28;20331;-43
2022/05/03 09:39:41;;;;;;;2.45;1.35;;;;;;;25.53;31.45;101766.53;5056169;28;20029;-43
2022/05/03 09:42:11;;;;;;;3.25;1.40;;;;;;;25.53;31.48;101776.16;5055779;28;20486;-43
2022/05/03 09:44:58;;;;;;;1.65;1.23;;;;;;;25.59;31.37;101785.03;5055651;28;20037;-42
2022/05/03 09:47:29;;;;;;;2.65;1.42;;;;;;;25.58;31.20;101779.75;5055339;28;20036;-44
2022/05/03 09:49:58;;;;;;;4.43;1.65;;;;;;;25.60;31.60;101781.56;5055129;28;20045;-45
2022/05/03 09:52:29;;;;;;;4.68;1.42;;;;;;;25.61;31.61;101782.44;5054587;28;20025;-44
2022/05/03 09:55:00;;;;;;;3.75;1.35;;;;;;;25.54;31.53;101777.94;5055782;28;20025;-45
2022/05/03 09:57:31;;;;;;;5.15;1.08;;;;;;;25.57;31.47;101772.72;5054660;28;20467;-42
2022/05/03 10:00:00;;;;;;;3.15;1.30;;;;;;;25.63;31.53;101781.63;5055872;28;20075;-42
2022/05/03 10:02:30;;;;;;;3.75;1.60;;;;;;;25.58;31.09;101772.75;5054682;28;20025;-42
2022/05/03 10:05:00;;;;;;;2.35;1.75;;;;;;;25.59;31.43;101777.16;5055658;28;20024;-43
2022/05/03 10:07:29;;;;;;;1.88;1.27;;;;;;;25.58;31.23;101779.75;5053856;28;20040;-42
2022/05/03 10:09:58;;;;;;;2.55;1.45;;;;;;;25.61;31.42;101783.34;5053566;28;20033;-44
2022/05/03 10:12:26;;;;;;;2.97;1.30;;;;;;;25.58;31.34;101782.38;5055433;28;20110;-42
2022/05/03 10:14:55;;;;;;;1.63;1.25;;;;;;;25.54;31.51;101781.44;5055392;28;20548;-45
2022/05/03 10:20:43;;;;;;;3.45;1.35;;;;;;;25.62;31.21;101785.09;5054221;28;20103;-44
2022/05/03 10:23:32;;;;;;;3.78;1.83;;;;;;;25.66;31.44;101780.78;5055226;28;20059;-44
2022/05/03 10:26:03;;;;;;;3.95;1.85;;;;;;;25.61;31.40;101778.09;5055118;28;20039;-42
2022/05/03 10:28:59;;;;;;;4.65;1.90;;;;;;;25.56;31.23;101760.47;5054943;28;20036;-43
2022/05/03 10:31:27;;;;;;;2.63;1.40;;;;;;;25.67;31.56;101784.28;5051138;28;20055;-42
2022/05/03 10:33:57;;;;;;;2.22;1.38;;;;;;;25.55;31.56;101767.44;5055471;28;20036;-45
2022/05/03 10:36:33;;;;;;;1.85;1.48;;;;;;;25.63;31.07;101776.38;5054787;28;20458;-43
2022/05/03 10:39:22;;;;;;;2.90;1.90;;;;;;;25.69;31.33;101769.44;5053896;28;20032;-43
2022/05/03 10:41:56;;;;;;;1.67;1.38;;;;;;;25.59;31.44;101766.66;5060249;28;20098;-43
2022/05/03 10:44:44;;;;;;;3.97;1.70;;;;;;;25.66;31.33;101767.66;5054277;28;20112;-43
2022/05/03 10:47:19;;;;;;;1.92;1.38;;;;;;;25.63;31.23;101768.50;5036789;28;20032;-45
2022/05/03 10:50:18;;;;;;;4.55;1.70;;;;;;;25.66;31.47;101754.50;5054882;28;20396;-45
2022/05/03 10:52:58;;;;;;;3.08;1.45;;;;;;;25.68;31.58;101758.06;5051248;28;20037;-43
2022/05/03 10:55:28;;;;;;;2.53;1.90;;;;;;;25.65;31.38;101763.25;5053358;28;20029;-43
2022/05/03 10:58:19;;;;;;;3.33;1.40;;;;;;;25.70;31.47;101760.69;5054622;28;20471;-42
2022/05/03 11:01:25;;;;;;;1.80;1.40;;;;;;;25.71;31.39;101757.22;5049823;28;20038;-43
2022/05/03 11:03:57;;;;;;;2.05;1.25;;;;;;;25.69;31.24;101757.19;5054430;28;20037;-43
2022/05/03 11:06:25;;;;;;;1.90;1.17;;;;;;;25.72;31.48;101753.72;5054554;28;20041;-44
2022/05/03 11:09:05;;;;;;;3.00;1.35;;;;;;;25.70;31.35;101755.44;5054465;28;20462;-43
2022/05/03 11:11:42;;;;;;;4.93;1.85;;;;;;;25.72;31.40;101752.00;5053121;28;20037;-43
2022/05/03 11:17:11;;;;;;;2.58;1.35;;;;;;;25.79;31.19;101750.38;5054090;28;20128;-43
2022/05/03 11:19:50;;;;;;;3.83;1.55;;;;;;;25.74;31.33;101745.00;5052745;28;20091;-43
2022/05/03 11:22:25;;;;;;;1.95;1.55;;;;;;;25.75;31.14;101745.91;5052063;28;20028;-43
2022/05/03 11:24:54;;;;;;;;;;;;;;;25.90;31.34;101747.91;5053635;28;20119;-42
2022/05/03 11:27:23;;;;;;;2.88;1.55;;;;;;;25.82;31.15;101742.50;5053846;28;20345;-43
2022/05/03 11:29:59;;;;;;;3.33;1.80;;;;;;;25.80;31.21;101733.75;5054128;28;20032;-43
2022/05/03 11:32:34;;;;;;;6.97;1.50;;;;;;;25.79;31.16;101724.97;5052736;28;20411;-43
2022/05/03 11:35:03;;;;;;;2.00;1.40;;;;;;;25.78;31.30;101727.56;5053937;28;20115;-43
2022/05/03 11:37:32;;;;;;;2.72;1.50;;;;;;;25.78;31.22;101715.31;5036440;28;20036;-44
2022/05/03 11:40:11;;;;;;;2.28;1.40;;;;;;;25.77;31.45;101724.03;5052331;28;20070;-43
2022/05/03 11:42:43;;;;;;;3.42;1.73;;;;;;;25.79;31.35;101721.47;5052863;28;20131;-42
2022/05/03 11:45:12;;;;;;;2.90;2.03;;;;;;;25.90;31.30;101722.53;5052361;28;20063;-43
2022/05/03 11:47:43;;;;;;;3.67;1.95;;;;;;;25.82;31.41;101724.13;5053646;28;20028;-43
2022/05/03 11:50:12;;;;;;;2.00;1.17;;;;;;;25.83;31.84;101718.00;5052650;28;20111;-44
2022/05/03 11:56:11;;;;;;;2.50;1.40;;;;;;;25.75;31.49;101704.72;5036262;28;20048;-42
2022/05/03 11:58:17;;;;;;;3.60;1.75;;;;;;;25.82;31.72;101718.84;5046275;28;20043;-43
2022/05/03 12:00:47;;;;;;;2.60;1.20;;;;;;;25.83;31.67;101720.63;5053663;28;20028;-42
2022/05/03 12:03:16;;;;;;;2.78;1.65;;;;;;;25.87;31.59;101721.59;5052346;28;20068;-43
2022/05/03 12:06:04;;;;;;;3.83;1.75;;;;;;;25.92;31.61;101717.28;5052304;28;20032;-42
2022/05/03 12:08:34;;;;;;;2.88;1.52;;;;;;;25.92;31.79;101712.91;5053289;28;20029;-42
2022/05/03 12:11:03;;;;;;;2.83;1.80;;;;;;;25.91;31.73;101716.41;5053367;28;20090;-43
2022/05/03 12:13:31;;;;;;;3.20;1.95;;;;;;;25.97;31.50;101712.13;5052148;28;20044;-43
2022/05/03 12:16:00;;;;;;;5.18;1.70;;;;;;;25.94;31.53;101705.94;5053846;28;20029;-42
2022/05/03 12:18:48;;;;;;;4.50;1.50;;;;;;;25.99;31.43;101716.53;5052281;28;20071;-42